Time;durP1;ratioP1;P1;durP2;ratioP2;P2;SDS_P1;SDS_P2;PMS_P1;PMS_P2;Temp;Humidity;BMP_temperature;BMP_pressure;BME280_temperature;BME280_humidity;BME280_pressure;Samples;Min_cycle;Max_cycle;Signal;HPM_P1;HPM_P2
2023/05/19 00:01:38;;;;;;;19.25;13.93;;;;;;;;;;5054939;28;20475;-68
2023/05/19 00:04:04;;;;;;;16.73;11.68;;;;;;;;;;5055074;28;20021;-59
2023/05/19 00:06:31;;;;;;;14.13;10.90;;;;;;;;;;5055057;28;20116;-57
2023/05/19 00:09:06;;;;;;;37.67;27.27;;;;;;;;;;5054899;28;20355;-53
2023/05/19 00:11:32;;;;;;;20.70;15.15;;;;;;;;;;5055189;28;20463;-74
2023/05/19 00:13:59;;;;;;;17.27;12.15;;;;;;;;;;5054552;28;20111;-55
2023/05/19 00:16:25;;;;;;;26.75;18.90;;;;;;;;;;5054028;28;20021;-54
2023/05/19 00:18:52;;;;;;;16.67;10.95;;;;;;;;;;5051886;28;20029;-53
2023/05/19 00:21:18;;;;;;;13.60;10.25;;;;;;;;;;5051480;28;20029;-69
2023/05/19 00:23:44;;;;;;;26.35;18.83;;;;;;;;;;5051333;28;20028;-55
2023/05/19 00:26:11;;;;;;;23.27;16.65;;;;;;;;;;5051909;28;20017;-53
2023/05/19 00:28:37;;;;;;;20.63;12.88;;;;;;;;;;5051444;28;20029;-74
2023/05/19 00:31:04;;;;;;;21.23;12.65;;;;;;;;;;5051258;28;20021;-76
2023/05/19 00:33:32;;;;;;;17.25;10.82;;;;;;;;;;5051325;28;20104;-53
2023/05/19 00:35:59;;;;;;;15.65;11.00;;;;;;;;;;5051471;28;20082;-74
2023/05/19 00:38:25;;;;;;;21.25;15.70;;;;;;;;;;5051200;28;20068;-54
2023/05/19 00:40:51;;;;;;;17.10;13.30;;;;;;;;;;5050539;28;20090;-53
2023/05/19 00:43:17;;;;;;;21.38;14.02;;;;;;;;;;5050890;28;20483;-53
2023/05/19 00:45:43;;;;;;;18.77;12.00;;;;;;;;;;5050995;28;20028;-63
2023/05/19 00:48:09;;;;;;;14.38;10.13;;;;;;;;;;5051064;28;20414;-53
2023/05/19 00:50:35;;;;;;;15.07;11.27;;;;;;;;;;5051500;28;20080;-53
2023/05/19 00:53:01;;;;;;;12.75;10.48;;;;;;;;;;5050895;28;20053;-64
2023/05/19 00:55:28;;;;;;;15.43;10.85;;;;;;;;;;5050822;28;20097;-53
2023/05/19 00:57:57;;;;;;;12.73;9.55;;;;;;;;;;5050921;28;20108;-53
2023/05/19 01:00:24;;;;;;;14.65;11.02;;;;;;;;;;5051330;28;20009;-72
2023/05/19 01:02:50;;;;;;;17.08;11.23;;;;;;;;;;5050982;28;20467;-66
2023/05/19 01:05:16;;;;;;;19.27;11.77;;;;;;;;;;5050853;28;20032;-68
2023/05/19 01:07:42;;;;;;;16.35;11.13;;;;;;;;;;5051012;28;20032;-53
2023/05/19 01:10:09;;;;;;;13.70;10.93;;;;;;;;;;5050604;28;20017;-54
2023/05/19 01:12:35;;;;;;;15.90;10.80;;;;;;;;;;5050595;28;20078;-54
2023/05/19 01:15:04;;;;;;;19.48;10.90;;;;;;;;;;5050720;28;20029;-62
2023/05/19 01:17:35;;;;;;;15.63;11.02;;;;;;;;;;5050070;28;20473;-53
2023/05/19 01:20:12;;;;;;;15.90;11.27;;;;;;;;;;5050596;28;20083;-75
2023/05/19 01:22:41;;;;;;;17.00;11.02;;;;;;;;;;5050615;28;20057;-54
2023/05/19 01:25:16;;;;;;;17.50;11.70;;;;;;;;;;5049842;28;20029;-53
2023/05/19 01:27:51;;;;;;;14.35;11.15;;;;;;;;;;5050733;28;20047;-62
2023/05/19 01:30:24;;;;;;;17.42;12.07;;;;;;;;;;5049440;28;20037;-61
2023/05/19 01:32:52;;;;;;;16.35;11.40;;;;;;;;;;5050712;28;20385;-77
2023/05/19 01:35:19;;;;;;;15.98;10.45;;;;;;;;;;5050146;28;20047;-54
2023/05/19 01:37:45;;;;;;;18.38;11.20;;;;;;;;;;5050314;28;20068;-53
2023/05/19 01:40:11;;;;;;;15.20;9.98;;;;;;;;;;5049758;28;20032;-53
2023/05/19 01:42:38;;;;;;;21.27;12.57;;;;;;;;;;5050171;28;20035;-58
2023/05/19 01:45:05;;;;;;;16.85;11.70;;;;;;;;;;5032584;28;20022;-54
2023/05/19 01:47:37;;;;;;;16.58;11.55;;;;;;;;;;5050344;28;20421;-78
2023/05/19 01:50:03;;;;;;;17.42;11.45;;;;;;;;;;5049888;28;20622;-62
2023/05/19 01:52:29;;;;;;;14.30;10.68;;;;;;;;;;5049596;28;20082;-53
2023/05/19 01:54:55;;;;;;;15.73;11.20;;;;;;;;;;5048972;28;20466;-54
2023/05/19 01:57:27;;;;;;;15.77;11.95;;;;;;;;;;5050014;28;20037;-53
2023/05/19 02:00:08;;;;;;;15.93;11.68;;;;;;;;;;5049950;28;20032;-76
2023/05/19 02:02:53;;;;;;;19.30;12.38;;;;;;;;;;5050148;28;20123;-63
2023/05/19 02:05:34;;;;;;;15.25;11.15;;;;;;;;;;5049864;28;20025;-54
2023/05/19 02:08:18;;;;;;;17.17;12.13;;;;;;;;;;5049792;28;20029;-53
2023/05/19 02:10:49;;;;;;;18.15;11.90;;;;;;;;;;5049364;28;20029;-54
2023/05/19 02:13:17;;;;;;;16.77;12.52;;;;;;;;;;5049604;28;20349;-53
2023/05/19 02:15:44;;;;;;;16.55;11.77;;;;;;;;;;5049303;28;20021;-60
2023/05/19 02:18:10;;;;;;;16.33;12.13;;;;;;;;;;5049341;28;20028;-74
2023/05/19 02:20:38;;;;;;;22.63;12.45;;;;;;;;;;5049464;28;20029;-54
2023/05/19 02:23:04;;;;;;;18.77;12.15;;;;;;;;;;5049699;28;20109;-55
2023/05/19 02:25:30;;;;;;;22.27;13.35;;;;;;;;;;5049412;28;20021;-74
2023/05/19 02:27:57;;;;;;;15.98;12.48;;;;;;;;;;5049261;28;20483;-54
2023/05/19 02:30:23;;;;;;;20.38;12.13;;;;;;;;;;5049444;28;20017;-54
2023/05/19 02:32:49;;;;;;;17.27;12.98;;;;;;;;;;5048912;28;20032;-72
2023/05/19 02:35:15;;;;;;;20.05;13.20;;;;;;;;;;5049087;28;20021;-55
2023/05/19 02:37:42;;;;;;;19.00;13.15;;;;;;;;;;5049272;28;20387;-53
2023/05/19 02:40:09;;;;;;;15.43;11.32;;;;;;;;;;5047967;28;20171;-54
2023/05/19 02:42:35;;;;;;;18.70;12.10;;;;;;;;;;5049137;28;20021;-54
2023/05/19 02:45:01;;;;;;;30.25;12.57;;;;;;;;;;5049224;28;20021;-76
2023/05/19 02:47:27;;;;;;;17.65;12.13;;;;;;;;;;5048819;28;20033;-54
2023/05/19 02:49:53;;;;;;;20.75;14.38;;;;;;;;;;5048823;28;20024;-80
2023/05/19 02:52:20;;;;;;;20.30;13.40;;;;;;;;;;5049009;28;20031;-76
2023/05/19 02:54:46;;;;;;;20.02;12.05;;;;;;;;;;5048669;28;20049;-54
2023/05/19 02:57:12;;;;;;;16.88;12.35;;;;;;;;;;5048958;28;20083;-79
2023/05/19 02:59:38;;;;;;;18.65;12.82;;;;;;;;;;5048626;28;20036;-54
2023/05/19 03:02:04;;;;;;;20.55;12.77;;;;;;;;;;5049365;28;20027;-74
2023/05/19 03:04:30;;;;;;;18.02;12.52;;;;;;;;;;5048318;28;20402;-54
2023/05/19 03:06:56;;;;;;;18.63;13.48;;;;;;;;;;5049106;28;20021;-54
2023/05/19 03:09:22;;;;;;;18.92;12.70;;;;;;;;;;5048625;28;20107;-79
2023/05/19 03:11:48;;;;;;;22.48;13.52;;;;;;;;;;5048944;28;20039;-78
2023/05/19 03:14:14;;;;;;;15.63;12.10;;;;;;;;;;5048981;28;20028;-56
2023/05/19 03:16:40;;;;;;;17.90;12.73;;;;;;;;;;5048946;28;20021;-80
2023/05/19 03:19:07;;;;;;;17.98;12.02;;;;;;;;;;5048266;28;20494;-76
2023/05/19 03:21:33;;;;;;;16.90;12.52;;;;;;;;;;5048551;28;20052;-79
2023/05/19 03:24:00;;;;;;;18.83;12.68;;;;;;;;;;5048337;28;20029;-80
2023/05/19 03:26:28;;;;;;;17.95;12.88;;;;;;;;;;5048870;28;20021;-67
2023/05/19 03:28:54;;;;;;;17.58;12.02;;;;;;;;;;5049045;28;20036;-54
2023/05/19 03:31:20;;;;;;;20.55;14.73;;;;;;;;;;5048716;28;20104;-54
2023/05/19 03:33:46;;;;;;;16.63;13.32;;;;;;;;;;5048296;28;20028;-54
2023/05/19 03:36:12;;;;;;;16.83;13.13;;;;;;;;;;5048701;28;20028;-54
2023/05/19 03:38:38;;;;;;;19.33;13.57;;;;;;;;;;5048106;28;20067;-53
2023/05/19 03:41:04;;;;;;;17.25;11.93;;;;;;;;;;5048737;28;20060;-54
2023/05/19 03:43:30;;;;;;;19.00;13.20;;;;;;;;;;5048862;28;20382;-54
2023/05/19 03:45:57;;;;;;;23.05;12.68;;;;;;;;;;5048099;28;20434;-78
2023/05/19 03:48:23;;;;;;;18.17;13.52;;;;;;;;;;5048473;28;20406;-53
2023/05/19 03:50:49;;;;;;;20.23;14.60;;;;;;;;;;5048548;28;20378;-53
2023/05/19 03:53:15;;;;;;;15.90;13.13;;;;;;;;;;5051504;28;20060;-67
2023/05/19 03:55:43;;;;;;;19.30;13.07;;;;;;;;;;5052056;28;20029;-53
2023/05/19 03:58:09;;;;;;;20.27;13.88;;;;;;;;;;5052224;28;20120;-53
2023/05/19 04:00:35;;;;;;;17.20;12.70;;;;;;;;;;5052134;28;20021;-70
2023/05/19 04:03:01;;;;;;;20.30;11.65;;;;;;;;;;5052351;28;20475;-74
2023/05/19 04:05:27;;;;;;;18.10;11.00;;;;;;;;;;5052116;28;20036;-53
2023/05/19 04:07:53;;;;;;;15.57;12.68;;;;;;;;;;5052410;28;20066;-79
2023/05/19 04:10:20;;;;;;;14.32;10.63;;;;;;;;;;5051874;28;20032;-53
2023/05/19 04:12:46;;;;;;;15.43;12.27;;;;;;;;;;5051502;28;20376;-64
2023/05/19 04:15:12;;;;;;;16.40;11.02;;;;;;;;;;5051698;28;20029;-54
2023/05/19 04:17:39;;;;;;;16.50;11.98;;;;;;;;;;5051612;28;20070;-55
2023/05/19 04:20:05;;;;;;;15.90;12.00;;;;;;;;;;5051188;28;20033;-54
2023/05/19 04:22:31;;;;;;;15.30;11.75;;;;;;;;;;5051672;28;20041;-68
2023/05/19 04:24:58;;;;;;;16.75;11.80;;;;;;;;;;5051438;28;20040;-60
2023/05/19 04:27:24;;;;;;;17.52;13.10;;;;;;;;;;5051768;28;20426;-68
2023/05/19 04:29:51;;;;;;;15.77;10.90;;;;;;;;;;5051137;28;20028;-74
2023/05/19 04:32:17;;;;;;;16.50;12.93;;;;;;;;;;5051182;28;20013;-74
2023/05/19 04:34:44;;;;;;;19.98;13.38;;;;;;;;;;5051502;28;20426;-52
2023/05/19 04:37:17;;;;;;;15.65;11.70;;;;;;;;;;5051416;28;20025;-74
2023/05/19 04:39:44;;;;;;;16.52;12.60;;;;;;;;;;5051386;28;20028;-73
2023/05/19 04:42:10;;;;;;;16.77;11.40;;;;;;;;;;5051703;28;20055;-53
2023/05/19 04:44:38;;;;;;;15.23;11.70;;;;;;;;;;5050927;28;20379;-54
2023/05/19 04:47:05;;;;;;;21.08;13.75;;;;;;;;;;5051181;28;20029;-65
2023/05/19 04:49:32;;;;;;;16.95;12.13;;;;;;;;;;5050791;28;20047;-76
2023/05/19 04:51:58;;;;;;;16.58;12.15;;;;;;;;;;5050991;28;20047;-54
2023/05/19 04:54:25;;;;;;;17.17;11.88;;;;;;;;;;5050834;28;20024;-55
2023/05/19 04:56:51;;;;;;;15.73;10.77;;;;;;;;;;5051157;28;20021;-54
2023/05/19 04:59:17;;;;;;;15.55;11.75;;;;;;;;;;5050097;28;20045;-56
2023/05/19 05:01:43;;;;;;;15.98;11.93;;;;;;;;;;5050999;28;20021;-54
2023/05/19 05:04:09;;;;;;;15.52;11.82;;;;;;;;;;5049338;28;20048;-72
2023/05/19 05:06:37;;;;;;;13.48;10.80;;;;;;;;;;5050608;28;20029;-54
2023/05/19 05:09:03;;;;;;;15.68;11.60;;;;;;;;;;5050596;28;20025;-53
2023/05/19 05:11:29;;;;;;;14.00;10.60;;;;;;;;;;5050719;28;20410;-54
2023/05/19 05:13:56;;;;;;;13.32;9.43;;;;;;;;;;5050838;28;20021;-54
2023/05/19 05:16:23;;;;;;;15.02;10.60;;;;;;;;;;5050746;28;20025;-53
2023/05/19 05:18:49;;;;;;;14.63;9.90;;;;;;;;;;5050514;28;20441;-78
2023/05/19 05:21:15;;;;;;;13.35;10.05;;;;;;;;;;5050374;28;20104;-54
2023/05/19 05:23:41;;;;;;;13.13;10.55;;;;;;;;;;5050580;28;20053;-53
2023/05/19 05:26:17;;;;;;;13.35;9.45;;;;;;;;;;5050166;28;20112;-74
2023/05/19 05:28:43;;;;;;;13.05;9.43;;;;;;;;;;5050959;28;20424;-53
2023/05/19 05:31:09;;;;;;;13.73;9.85;;;;;;;;;;5050383;28;20435;-55
2023/05/19 05:33:35;;;;;;;13.38;10.23;;;;;;;;;;5049943;28;20020;-54
2023/05/19 05:36:01;;;;;;;13.52;9.70;;;;;;;;;;5050738;28;20497;-67
2023/05/19 05:38:27;;;;;;;14.23;9.52;;;;;;;;;;5050269;28;20124;-58
2023/05/19 05:40:53;;;;;;;10.05;7.93;;;;;;;;;;5050584;28;20048;-66
2023/05/19 05:43:19;;;;;;;16.70;9.85;;;;;;;;;;5049927;28;20360;-56
2023/05/19 05:45:45;;;;;;;13.38;9.82;;;;;;;;;;5050377;28;20713;-53
2023/05/19 05:48:11;;;;;;;14.15;9.95;;;;;;;;;;5050223;28;20017;-53
2023/05/19 05:50:38;;;;;;;12.43;9.60;;;;;;;;;;5050109;28;20086;-55
2023/05/19 05:53:06;;;;;;;15.13;10.13;;;;;;;;;;5050046;28;20482;-53
2023/05/19 05:55:32;;;;;;;11.15;8.82;;;;;;;;;;5049914;28;20403;-65
2023/05/19 05:58:00;;;;;;;14.55;9.50;;;;;;;;;;5049528;28;20044;-55
2023/05/19 06:00:27;;;;;;;9.55;7.95;;;;;;;;;;5049775;28;20071;-73
2023/05/19 06:02:53;;;;;;;13.95;10.13;;;;;;;;;;5049951;28;20024;-53
2023/05/19 06:05:19;;;;;;;10.40;8.35;;;;;;;;;;5049851;28;20021;-72
2023/05/19 06:07:45;;;;;;;14.43;9.43;;;;;;;;;;5054435;28;20051;-54
2023/05/19 06:10:12;;;;;;;12.07;9.13;;;;;;;;;;5058031;28;20029;-53
2023/05/19 06:12:42;;;;;;;11.23;9.05;;;;;;;;;;5049686;28;20025;-72
2023/05/19 06:15:08;;;;;;;13.23;9.05;;;;;;;;;;5049433;28;20428;-53
2023/05/19 06:17:34;;;;;;;15.05;9.88;;;;;;;;;;5049663;28;20029;-54
2023/05/19 06:20:01;;;;;;;12.63;9.00;;;;;;;;;;5050090;28;20060;-56
2023/05/19 06:22:27;;;;;;;14.07;9.80;;;;;;;;;;5049116;28;20102;-56
2023/05/19 06:24:53;;;;;;;12.98;10.75;;;;;;;;;;5049205;28;20059;-54
2023/05/19 06:27:19;;;;;;;10.73;8.85;;;;;;;;;;5049275;28;20455;-54
2023/05/19 06:29:45;;;;;;;11.95;8.75;;;;;;;;;;5049244;28;20495;-58
2023/05/19 06:32:11;;;;;;;12.05;8.68;;;;;;;;;;5048926;28;20490;-59
2023/05/19 06:34:39;;;;;;;15.43;10.13;;;;;;;;;;5048527;28;20375;-57
2023/05/19 06:37:05;;;;;;;18.95;14.57;;;;;;;;;;5049332;28;20391;-55
2023/05/19 06:39:31;;;;;;;15.60;12.43;;;;;;;;;;5048828;28;20475;-57
2023/05/19 06:41:58;;;;;;;17.17;12.23;;;;;;;;;;5048756;28;20017;-54
2023/05/19 06:44:24;;;;;;;15.40;11.98;;;;;;;;;;5047784;28;20383;-66
2023/05/19 06:46:50;;;;;;;15.90;12.07;;;;;;;;;;5030277;28;20037;-56
2023/05/19 06:49:16;;;;;;;14.65;11.20;;;;;;;;;;5049092;28;20530;-56
2023/05/19 06:51:42;;;;;;;19.02;12.40;;;;;;;;;;5048396;28;20533;-58
2023/05/19 06:54:09;;;;;;;15.95;12.68;;;;;;;;;;5048751;28;20474;-58
2023/05/19 06:56:35;;;;;;;16.60;12.20;;;;;;;;;;5048855;28;20497;-56
2023/05/19 06:59:02;;;;;;;15.85;12.57;;;;;;;;;;5049293;28;20033;-56
2023/05/19 07:01:29;;;;;;;19.10;12.23;;;;;;;;;;5049063;28;20044;-68
2023/05/19 07:03:55;;;;;;;15.65;12.07;;;;;;;;;;5048934;28;20021;-66
2023/05/19 07:06:21;;;;;;;15.98;11.88;;;;;;;;;;5049491;28;20071;-56
2023/05/19 07:08:47;;;;;;;21.58;15.27;;;;;;;;;;5048666;28;20025;-58
2023/05/19 07:11:13;;;;;;;19.70;14.82;;;;;;;;;;5048964;28;20426;-55
2023/05/19 07:13:39;;;;;;;21.55;16.38;;;;;;;;;;5048749;28;20032;-64
2023/05/19 07:16:05;;;;;;;21.92;14.70;;;;;;;;;;5049078;28;20036;-71
2023/05/19 07:18:31;;;;;;;25.80;16.95;;;;;;;;;;5048473;28;20381;-56
2023/05/19 07:20:57;;;;;;;18.98;15.20;;;;;;;;;;5048990;28;20379;-55
2023/05/19 07:23:23;;;;;;;16.05;13.75;;;;;;;;;;5048685;28;20102;-74
2023/05/19 07:25:54;;;;;;;15.85;11.55;;;563.40;2432.00;;;;;;5048075;28;20021;-60
2023/05/19 07:28:20;;;;;;;16.40;12.40;;;589.20;2329.60;;;;;;5052267;28;20021;-56
2023/05/19 07:30:45;;;;;;;16.80;12.13;;;614.70;2176.00;;;;;;5052661;28;20108;-57
2023/05/19 07:33:11;;;;;;;14.43;10.75;;;589.10;2176.00;;;;;;5052314;28;20055;-58
2023/05/19 07:35:37;;;;;;;15.10;11.05;;;563.60;2304.00;;;;;;5052284;28;20029;-69
2023/05/19 07:38:03;;;;;;;15.20;11.48;;;538.10;2406.40;;;;;;5052467;28;20039;-59
2023/05/19 07:40:28;;;;;;;20.50;11.95;;;537.90;2406.40;;;;;;5052256;28;20017;-63
2023/05/19 07:42:54;;;;;;;14.88;11.13;;;538.10;2406.40;;;;;;5052436;28;20032;-55
2023/05/19 07:45:20;;;;;;;18.08;13.48;;;563.20;2432.00;;;;;;5059750;28;20020;-56
2023/05/19 07:47:45;;;;;;;18.02;13.45;;;563.30;2406.40;;;;;;5071657;28;20045;-59
2023/05/19 07:50:11;;;;;;;16.80;13.25;;;563.20;2406.40;;;;;;5052786;28;20016;-56
2023/05/19 07:52:37;;;;;;;23.70;14.60;;;563.60;2406.40;;;;;;5052625;28;20041;-55
2023/05/19 07:55:03;;;;;;;19.77;13.85;;;564.00;2329.60;;;;;;5052284;28;20455;-56
2023/05/19 07:57:28;;;;;;;17.60;13.60;;;563.70;2329.60;;;;;;5052488;28;20025;-55
2023/05/19 07:59:54;;;;;;;21.15;13.35;;;563.70;2329.60;;;;;;5061024;28;20720;-56
2023/05/19 08:02:20;;;;;;;21.38;13.70;;;563.50;2355.20;;;;;;5072384;28;20455;-56
2023/05/19 08:04:47;;;;;;;22.33;13.80;;;563.20;2380.80;;;;;;5071982;28;20060;-74
2023/05/19 08:07:13;;;;;;;23.65;15.70;;;538.30;2355.20;;;;;;5056249;28;20036;-67
2023/05/19 08:09:38;;;;;;;31.83;15.35;;;537.60;2406.40;;;;;;5051818;28;20025;-56
2023/05/19 08:12:04;;;;;;;29.98;16.17;;;538.10;2406.40;;;;;;5051903;28;20463;-56
2023/05/19 08:14:32;;;;;;;31.58;15.73;;;563.20;2432.00;;;;;;5051621;28;20021;-57
2023/05/19 08:16:57;;;;;;;22.00;13.80;;;588.90;2278.40;;;;;;5051636;28;20491;-56
2023/05/19 08:19:23;;;;;;;31.73;16.05;;;563.70;2304.00;;;;;;5051783;28;20119;-56
2023/05/19 08:21:49;;;;;;;23.15;15.07;;;564.00;2278.40;;;;;;5051514;28;20035;-56
2023/05/19 08:24:14;;;;;;;23.10;15.82;;;563.90;2304.00;;;;;;5051148;28;20040;-56
2023/05/19 08:26:42;;;;;;;33.85;16.27;;;563.40;2278.40;;;;;;5052092;28;20044;-57
2023/05/19 08:29:08;;;;;;;24.77;15.25;;;538.30;2329.60;;;;;;5051746;28;20040;-56
2023/05/19 08:31:33;;;;;;;27.80;16.33;;;538.00;2380.80;;;;;;5052271;28;20025;-56
2023/05/19 08:33:59;;;;;;;23.20;15.60;;;537.80;2380.80;;;;;;5051326;28;20471;-55
2023/05/19 08:36:25;;;;;;;29.25;16.02;;;512.60;2380.80;;;;;;5052090;28;20112;-58
2023/05/19 08:38:50;;;;;;;23.65;15.15;;;512.10;2380.80;;;;;;5037705;28;20128;-55
2023/05/19 08:41:16;;;;;;;23.67;14.98;;;512.20;2380.80;;;;;;5052394;28;20049;-57
2023/05/19 08:43:43;;;;;;;25.90;15.27;;;;;;;;;;5051305;28;20100;-68
2023/05/19 08:46:10;;;;;;;25.23;15.95;;;;;;;;;;5051424;28;20051;-55
2023/05/19 08:48:38;;;;;;;29.00;16.23;;;;;;;;;;5051135;28;20025;-56
2023/05/19 08:51:21;;;;;;;31.35;17.65;;;487.30;2380.80;;;;;;5051596;28;20037;-56
2023/05/19 08:53:50;;;;;;;28.67;17.20;;;487.10;2380.80;;;;;;5050503;28;20054;-55
2023/05/19 08:56:21;;;;;;;21.25;15.30;;;512.00;2380.80;;;;;;5051229;28;20025;-56
2023/05/19 08:58:49;;;;;;;23.85;17.38;;;487.20;2380.80;;;;;;5050688;28;20040;-55
2023/05/19 09:01:18;;;;;;;38.90;19.15;;;487.20;2380.80;;;;;;5051641;28;20017;-70
2023/05/19 09:03:48;;;;;;;26.85;16.88;;;487.30;2380.80;;;;;;5046357;28;20112;-59
2023/05/19 09:06:14;;;;;;;24.30;16.30;;;512.20;2380.80;;;;;;5051234;28;20107;-55
2023/05/19 09:08:41;;;;;;;18.90;15.32;;;512.40;2380.80;;;;;;5050785;28;20064;-55
2023/05/19 09:11:08;;;;;;;22.50;16.33;;;512.50;2380.80;;;;;;5050932;28;20032;-55
2023/05/19 09:13:34;;;;;;;22.75;17.08;;;512.60;2380.80;;;;;;5050953;28;20040;-57
2023/05/19 09:16:00;;;;;;;21.85;16.65;;;512.70;2380.80;;;;;;5032682;28;20025;-56
2023/05/19 09:18:26;;;;;;;22.30;16.08;;;512.80;2380.80;;;;;;5050724;28;20025;-54
2023/05/19 09:20:58;;;;;;;28.60;18.48;;;512.30;2380.80;;;;;;5050686;28;20025;-56
2023/05/19 09:23:29;;;;;;;24.58;15.45;;;512.10;2380.80;;;;;;5050859;28;20051;-56
2023/05/19 09:25:56;;;;;;;23.85;17.02;;;487.10;2380.80;;;;;;5050540;28;20150;-56
2023/05/19 09:28:30;;;;;;;25.15;19.15;;;512.00;2380.80;;;;;;5049953;28;20025;-55
2023/05/19 09:31:03;;;;;;;20.25;16.75;;;512.30;2380.80;;;;;;5050608;28;20032;-56
2023/05/19 09:33:31;;;;;;;22.48;17.90;;;512.90;2380.80;;;;;;5050066;28;20040;-56
2023/05/19 09:35:57;;;;;;;25.70;17.30;;;;;;;;;;5050269;28;20364;-56
2023/05/19 09:38:25;;;;;;;21.90;16.38;;;538.40;2406.40;;;;;;5049576;28;20067;-69
2023/05/19 09:40:52;;;;;;;24.60;17.02;;;538.20;2406.40;;;;;;5049556;28;20108;-55
2023/05/19 09:43:18;;;;;;;27.60;18.70;;;538.20;2406.40;;;;;;5049938;28;20029;-57
2023/05/19 09:45:43;;;;;;;26.00;19.33;;;512.70;2380.80;;;;;;5050315;28;20032;-56
2023/05/19 09:48:09;;;;;;;24.98;19.17;;;537.80;2406.40;;;;;;5049947;28;20035;-57
2023/05/19 09:50:36;;;;;;;23.15;18.33;;;538.00;2406.40;;;;;;5049297;28;20452;-56
2023/05/19 09:53:03;;;;;;;25.95;19.60;;;538.10;2406.40;;;;;;5050364;28;20048;-60
2023/05/19 09:55:28;;;;;;;26.58;19.63;;;563.40;2432.00;;;;;;5062186;28;20089;-59
2023/05/19 09:57:55;;;;;;;25.98;19.50;;;563.50;2432.00;;;;;;5056928;28;20032;-68
2023/05/19 10:00:22;;;;;;;29.23;19.25;;;563.40;2432.00;;;;;;5057847;28;20399;-57
2023/05/19 10:02:49;;;;;;;31.48;21.02;;;563.90;2432.00;;;;;;5069493;28;20029;-57
2023/05/19 10:05:18;;;;;;;27.15;21.20;;;563.90;2406.40;;;;;;5068059;28;20024;-59
2023/05/19 10:07:47;;;;;;;27.63;20.38;;;563.30;2432.00;;;;;;5058925;28;20025;-59
2023/05/19 10:10:13;;;;;;;28.25;18.98;;;563.60;2432.00;;;;;;5068209;28;20463;-57
2023/05/19 10:12:40;;;;;;;21.92;18.05;;;538.20;2406.40;;;;;;5061392;28;20032;-60
2023/05/19 10:15:10;;;;;;;27.05;19.65;;;538.40;2406.40;;;;;;5049392;28;20160;-56
2023/05/19 10:17:38;;;;;;;26.08;19.08;;;538.40;2406.40;;;;;;5049729;28;20068;-55
2023/05/19 10:20:07;;;;;;;26.08;19.02;;;538.00;2406.40;;;;;;5050190;28;20477;-55
2023/05/19 10:22:33;;;;;;;25.52;18.77;;;538.30;2406.40;;;;;;5049724;28;20052;-57
2023/05/19 10:24:59;;;;;;;32.60;21.35;;;538.40;2406.40;;;;;;5049442;28;20029;-57
2023/05/19 10:27:26;;;;;;;25.15;19.38;;;538.50;2406.40;;;;;;5049654;28;20511;-69
2023/05/19 10:29:58;;;;;;;25.35;20.05;;;563.20;2432.00;;;;;;5049690;28;20029;-57
2023/05/19 10:32:29;;;;;;;24.45;19.58;;;563.60;2432.00;;;;;;5049611;28;20581;-56
2023/05/19 10:34:56;;;;;;;24.67;19.80;;;563.90;2432.00;;;;;;5049287;28;20029;-56
2023/05/19 10:37:45;;;;;;;25.17;19.63;;;538.50;2355.20;;;;;;5049014;28;20027;-56
2023/05/19 10:40:35;;;;;;;22.63;18.90;;;563.50;2406.40;;;;;;5049240;28;20075;-55
2023/05/19 10:43:27;;;;;;;22.02;17.42;;;538.00;2380.80;;;;;;5049501;28;20025;-55
2023/05/19 10:45:54;;;;;;;22.17;18.88;;;538.40;2304.00;;;;;;4949159;29;20035;-56
2023/05/19 10:48:21;;;;;;;27.40;21.58;;;563.70;2304.00;;;;;;4948881;29;20498;-56
2023/05/19 10:50:47;;;;;;;25.17;20.10;;;563.90;2304.00;;;;;;4948728;29;20043;-56
2023/05/19 10:53:16;;;;;;;25.42;19.35;;;563.70;2304.00;;;;;;4949381;29;20086;-57
2023/05/19 10:55:50;;;;;;;24.88;18.95;;;538.40;2304.00;;;;;;4948926;29;20027;-69
2023/05/19 10:58:38;;;;;;;22.75;19.25;;;563.30;2355.20;;;;;;4948800;29;20099;-58
2023/05/19 11:01:13;;;;;;;27.65;22.58;;;563.90;2329.60;;;;;;4948742;28;20439;-56
2023/05/19 11:03:49;;;;;;;25.55;20.15;;;588.80;2304.00;;;;;;4948787;29;20036;-56
2023/05/19 11:06:19;;;;;;;21.38;19.08;;;;;;;;;;4949213;29;20525;-56
2023/05/19 11:08:46;;;;;;;25.88;18.98;;;589.60;2227.20;;;;;;4949112;29;20086;-56
2023/05/19 11:11:15;;;;;;;24.92;19.75;;;589.50;2150.40;;;;;;4932963;29;20049;-55
2023/05/19 11:13:50;;;;;;;22.45;20.05;;;589.30;2150.40;;;;;;4948855;29;20027;-56
2023/05/19 11:16:25;;;;;;;22.33;18.48;;;;;;;;;;4948827;29;20027;-56
2023/05/19 11:18:53;;;;;;;31.30;20.25;;;;;;;;;;4949105;29;20565;-55
2023/05/19 11:21:19;;;;;;;23.33;18.80;;;;;;;;;;4966570;28;20030;-59
2023/05/19 11:23:45;;;;;;;26.77;19.92;;;;;;;;;;5051231;28;20136;-56
2023/05/19 11:26:12;;;;;;;23.63;19.65;;;;;;;;;;5068887;28;20020;-62
2023/05/19 11:28:38;;;;;;;24.42;19.00;;;;;;;;;;5068883;28;20036;-56
2023/05/19 11:31:06;;;;;;;21.45;18.25;;;;;;;;;;5049424;28;20021;-56
2023/05/19 11:33:33;;;;;;;23.42;20.48;;;;;;;;;;5048954;28;20029;-56
2023/05/19 11:36:00;;;;;;;27.75;20.38;;;;;;;;;;5048784;28;20096;-56
2023/05/19 11:38:28;;;;;;;23.40;19.52;;;;;;;;;;5048545;28;20025;-57
2023/05/19 11:40:55;;;;;;;23.38;20.48;;;;;;;;;;5048674;28;20021;-59
2023/05/19 11:43:25;;;;;;;28.17;22.35;;;;;;;;;;5048795;28;20463;-56
2023/05/19 11:45:51;;;;;;;21.33;17.60;;;;;;;;;;5048742;28;20029;-57
2023/05/19 11:48:20;;;;;;;23.88;20.02;;;;;;;;;;5047721;28;20471;-57
2023/05/19 11:50:46;;;;;;;24.00;21.48;;;;;;;;;;5048357;28;20068;-57
2023/05/19 11:53:12;;;;;;;30.02;23.02;;;;;;;;;;5049014;28;20071;-58
2023/05/19 11:55:43;;;;;;;24.15;21.25;;;;;;;;;;5047772;28;20501;-59
2023/05/19 11:58:09;;;;;;;23.00;20.48;;;;;;;;;;5048451;28;20037;-57
2023/05/19 12:00:38;;;;;;;23.35;19.33;;;;;;;;;;5048691;28;20025;-57
2023/05/19 12:03:06;;;;;;;20.63;18.15;;;;;;;;;;5048731;28;20458;-59
2023/05/19 12:05:33;;;;;;;26.17;18.00;;;;;;;;;;5047214;28;20083;-62
2023/05/19 12:07:59;;;;;;;22.48;19.00;;;;;;;;;;5045908;28;20530;-58
2023/05/19 12:10:27;;;;;;;24.38;18.55;;;;;;;;;;5046538;28;20507;-57
2023/05/19 12:12:53;;;;;;;24.50;19.85;;;563.50;2355.20;;;;;;5047967;28;20033;-57
2023/05/19 12:15:20;;;;;;;25.20;21.92;;;538.40;2380.80;;;;;;5050544;28;20053;-58
2023/05/19 12:18:04;;;;;;;25.48;22.67;;;563.30;2432.00;;;;;;5050376;28;20033;-57
2023/05/19 12:20:31;;;;;;;25.00;19.65;;;;;;;;;;5049730;28;20017;-57
2023/05/19 12:22:58;;;;;;;22.15;18.90;;;;;;;;;;5049941;28;20140;-58
2023/05/19 12:25:24;;;;;;;23.13;20.40;;;;;;;;;;5050259;28;20024;-58
2023/05/19 12:27:54;;;;;;;22.13;19.42;;;;;;;;;;5050764;28;20583;-56
2023/05/19 12:30:25;;;;;;;26.00;20.20;;;;;;;;;;5050260;28;20099;-57
2023/05/19 12:32:53;;;;;;;24.98;21.45;;;;;;;;;;5052290;28;20028;-57
2023/05/19 12:35:19;;;;;;;21.58;18.38;;;;;;;;;;5051222;28;20040;-57
2023/05/19 12:37:45;;;;;;;25.50;22.70;;;564.00;2355.20;;;;;;5051165;28;20566;-58
2023/05/19 12:40:15;;;;;;;31.48;22.83;;;;;;;;;;5051266;28;20115;-57
2023/05/19 12:42:43;;;;;;;36.13;22.48;;;;;;;;;;5051338;28;20112;-60
2023/05/19 12:45:09;;;;;;;26.35;20.50;;;563.60;2432.00;;;;;;5051155;28;20035;-57
2023/05/19 12:47:35;;;;;;;28.33;23.00;;;563.20;2432.00;;;;;;5050993;28;20025;-57
2023/05/19 12:50:08;;;;;;;25.17;21.52;;;563.40;2432.00;;;;;;5062709;28;20069;-57
2023/05/19 12:52:54;;;;;;;28.52;21.88;;;563.40;2432.00;;;;;;5051984;28;20121;-65
2023/05/19 12:55:20;;;;;;;25.55;22.77;;;538.50;2406.40;;;;;;5050996;28;20128;-59
2023/05/19 12:57:55;;;;;;;28.10;22.30;;;563.60;2432.00;;;;;;5050981;28;21975;-57
2023/05/19 13:00:27;;;;;;;23.48;21.02;;;563.90;2432.00;;;;;;5050556;28;20029;-57
2023/05/19 13:03:15;;;;;;;26.52;22.95;;;563.30;2432.00;;;;;;5050826;28;20028;-57
2023/05/19 13:05:43;;;;;;;25.15;21.83;;;538.30;2406.40;;;;;;5050843;28;20037;-56
2023/05/19 13:08:10;;;;;;;26.58;20.92;;;563.70;2432.00;;;;;;5056265;28;20113;-58
2023/05/19 13:10:39;;;;;;;24.30;21.30;;;563.80;2432.00;;;;;;5058508;28;20032;-57
2023/05/19 13:13:06;;;;;;;28.85;21.98;;;;;;;;;;5050370;28;20029;-58
2023/05/19 13:15:35;;;;;;;29.10;24.30;;;;;;;;;;5051060;28;20027;-57
2023/05/19 13:18:02;;;;;;;29.48;22.92;;;;;;;;;;5050316;28;20537;-57
2023/05/19 13:20:28;;;;;;;28.67;25.58;;;;;;;;;;5050790;28;20017;-64
2023/05/19 13:22:54;;;;;;;28.35;25.10;;;;;;;;;;5050320;28;20055;-64
2023/05/19 13:25:20;;;;;;;30.98;27.15;;;;;;;;;;5049186;28;20013;-66
2023/05/19 13:27:47;;;;;;;30.65;25.48;;;563.30;2432.00;;;;;;5063118;28;20058;-65
2023/05/19 13:30:14;;;;;;;27.95;24.48;;;563.30;2432.00;;;;;;5058744;28;20025;-59
2023/05/19 13:32:40;;;;;;;30.52;27.10;;;538.50;2406.40;;;;;;5055072;28;20032;-56